Lewiston, Michigan
Current Conditions -  °F | °C
As of 5:53 PM on Tuesday 27 Jan 2015 (Local Time) from KGLR Reporting Station
Clear Clear  
Wind Chill: 19°   Ceiling: Unl
Heat Index: 19°   Visibility: 10mi
Dew Point:   Wind: 0mph
Humidity: 43%   Direction: NA
Pressure: 30.17"   Gusts: NA
Location:  44.88°N, 84.31°W
Report Text: KGLR 272253Z AUTO 00000KT 10SM CLR M07/M18 A3017 RMK AO2 SLP243 T10721178
Loading
Personal Weather Stations






























Interactive Weather Map New forecast layout! Learn more

10-Day Weather Forecast

Advertisements
Track Severe Weather on mobile